createdAt,value
2018-05-15T00:00:09.701Z,5.60
2018-05-15T00:02:37.168Z,5.10
2018-05-15T00:05:03.912Z,5.60
2018-05-15T00:07:30.682Z,5.10
2018-05-15T00:09:57.101Z,5.67
2018-05-15T00:12:23.991Z,5.93
2018-05-15T00:14:50.716Z,5.67
2018-05-15T00:17:17.525Z,5.73
2018-05-15T00:19:44.266Z,6.00
2018-05-15T00:22:11.211Z,5.50
2018-05-15T00:24:38.327Z,5.40
2018-05-15T00:27:05.487Z,5.07
2018-05-15T00:29:33.030Z,5.10
2018-05-15T00:32:00.214Z,5.67
2018-05-15T00:34:27.390Z,5.27
2018-05-15T00:36:53.710Z,5.70
2018-05-15T00:39:19.927Z,5.60
2018-05-15T00:41:46.823Z,4.80
2018-05-15T00:44:14.323Z,5.70
2018-05-15T00:46:40.881Z,5.10
2018-05-15T00:49:07.880Z,5.90
2018-05-15T00:51:35.471Z,5.50
2018-05-15T00:54:02.311Z,6.17
2018-05-15T00:56:28.540Z,5.40
2018-05-15T00:58:55.730Z,5.50
2018-05-15T01:01:22.513Z,5.17
2018-05-15T01:03:49.008Z,6.13
2018-05-15T01:06:16.384Z,6.10
2018-05-15T01:08:44.390Z,5.90
2018-05-15T01:11:10.779Z,5.90
2018-05-15T01:13:38.426Z,5.60
2018-05-15T01:16:05.050Z,6.03
2018-05-15T01:18:33.210Z,6.20
2018-05-15T01:20:59.954Z,5.93
2018-05-15T01:23:26.745Z,5.80
2018-05-15T01:25:52.955Z,5.73
2018-05-15T01:28:19.932Z,6.20
2018-05-15T01:30:46.908Z,6.47
2018-05-15T01:33:13.905Z,5.97
2018-05-15T01:35:41.457Z,6.07
2018-05-15T01:38:08.926Z,6.70
2018-05-15T01:40:35.131Z,6.10
2018-05-15T01:43:01.744Z,6.57
2018-05-15T01:45:28.702Z,6.13
2018-05-15T01:47:55.076Z,6.20
2018-05-15T01:50:22.787Z,5.60
2018-05-15T01:52:49.579Z,6.90
2018-05-15T01:55:16.297Z,5.37
2018-05-15T01:57:42.579Z,5.90
2018-05-15T02:00:08.819Z,6.20
2018-05-15T02:02:35.060Z,6.87
2018-05-15T02:05:01.792Z,6.80
2018-05-15T02:07:28.391Z,6.60
2018-05-15T02:09:55.410Z,7.37
2018-05-15T02:12:22.896Z,7.03
2018-05-15T02:14:49.637Z,7.87
2018-05-15T02:17:16.329Z,6.93
2018-05-15T02:19:43.420Z,6.97
2018-05-15T02:22:10.613Z,6.40
2018-05-15T02:24:36.800Z,7.50
2018-05-15T02:27:03.030Z,7.20
2018-05-15T02:29:29.258Z,6.77
2018-05-15T02:31:56.033Z,7.60
2018-05-15T02:34:22.801Z,6.70
2018-05-15T02:36:50.173Z,7.17
2018-05-15T02:39:16.402Z,7.67
2018-05-15T02:41:43.152Z,7.47
2018-05-15T02:44:09.876Z,6.83
2018-05-15T02:46:36.397Z,7.70
2018-05-15T02:49:03.366Z,7.00
2018-05-15T02:51:31.137Z,7.73
2018-05-15T02:53:57.344Z,6.77
2018-05-15T02:56:25.808Z,7.60
2018-05-15T02:58:52.777Z,8.00
2018-05-15T03:01:19.542Z,8.13
2018-05-15T03:03:45.764Z,8.30
2018-05-15T03:06:12.553Z,8.63
2018-05-15T03:08:38.763Z,9.00
2018-05-15T03:11:06.489Z,8.33
2018-05-15T03:13:32.875Z,8.10
2018-05-15T03:16:00.500Z,8.07
2018-05-15T03:18:26.701Z,8.07
2018-05-15T03:20:53.610Z,8.03
2018-05-15T03:23:20.350Z,7.90
2018-05-15T03:25:47.092Z,8.40
2018-05-15T03:28:13.295Z,8.13
2018-05-15T03:30:40.652Z,8.70
2018-05-15T03:33:14.267Z,8.07
2018-05-15T03:35:40.962Z,8.57
2018-05-15T03:38:07.881Z,7.90
2018-05-15T03:40:35.570Z,9.17
2018-05-15T03:43:01.931Z,9.10
2018-05-15T03:45:28.704Z,8.47
2018-05-15T03:47:55.259Z,8.30
2018-05-15T03:50:21.569Z,9.27
2018-05-15T03:52:48.533Z,9.07
2018-05-15T03:55:14.725Z,9.20
2018-05-15T03:57:40.996Z,8.67
2018-05-15T04:00:20.084Z,9.03
2018-05-15T04:02:59.384Z,10.07
2018-05-15T04:05:37.929Z,9.50
2018-05-15T04:08:14.419Z,9.60
2018-05-15T04:10:41.928Z,9.87
2018-05-15T04:13:08.163Z,9.30
2018-05-15T04:15:34.387Z,9.90
2018-05-15T04:18:00.616Z,10.57
2018-05-15T04:20:27.236Z,9.37
2018-05-15T04:22:53.708Z,9.93
2018-05-15T04:25:21.118Z,9.10
2018-05-15T04:27:48.802Z,9.77
2018-05-15T04:30:15.945Z,10.67
2018-05-15T04:32:42.815Z,10.00
2018-05-15T04:35:09.914Z,9.70
2018-05-15T04:37:36.082Z,9.77
2018-05-15T04:40:03.001Z,9.70
2018-05-15T04:42:30.270Z,8.90
2018-05-15T04:44:57.796Z,8.50
2018-05-15T04:47:24.515Z,10.00
2018-05-15T04:49:51.264Z,9.80
2018-05-15T04:52:18.007Z,9.17
2018-05-15T04:54:44.623Z,9.90
2018-05-15T04:57:13.323Z,9.00
2018-05-15T04:59:39.627Z,8.87
2018-05-15T05:02:06.720Z,9.40
2018-05-15T05:04:33.316Z,8.90
2018-05-15T05:06:59.940Z,9.60
2018-05-15T05:09:28.503Z,9.80
2018-05-15T05:11:55.314Z,9.07
2018-05-15T05:14:22.558Z,9.50
2018-05-15T05:16:48.784Z,10.37
2018-05-15T05:19:14.960Z,9.70
2018-05-15T05:21:41.833Z,9.53
2018-05-15T05:24:08.806Z,10.10
2018-05-15T05:26:36.049Z,10.20
2018-05-15T05:29:03.491Z,9.20
2018-05-15T05:31:31.005Z,9.27
2018-05-15T05:33:57.774Z,9.93
2018-05-15T05:36:24.491Z,10.53
2018-05-15T05:38:51.132Z,9.50
2018-05-15T05:41:18.051Z,9.93
2018-05-15T05:43:45.270Z,9.40
2018-05-15T05:46:12.299Z,8.83
2018-05-15T05:48:40.279Z,10.03
2018-05-15T05:51:08.447Z,9.60
2018-05-15T05:53:36.988Z,10.17
2018-05-15T05:56:03.760Z,9.97
2018-05-15T05:58:29.961Z,9.80
2018-05-15T06:00:56.140Z,10.43
2018-05-15T06:03:22.863Z,10.60
2018-05-15T06:05:50.337Z,9.83
2018-05-15T06:08:16.545Z,10.70
2018-05-15T06:10:44.095Z,10.50
2018-05-15T06:13:11.253Z,10.30
2018-05-15T06:15:38.206Z,10.80
2018-05-15T06:18:04.990Z,11.37
2018-05-15T06:20:31.197Z,10.00
2018-05-15T06:22:57.944Z,10.70
2018-05-15T06:25:24.977Z,10.60
2018-05-15T06:27:52.236Z,10.80
2018-05-15T06:30:19.578Z,10.50
2018-05-15T06:32:46.336Z,10.80
2018-05-15T06:35:14.017Z,10.80
2018-05-15T06:37:41.289Z,11.03
2018-05-15T06:40:08.213Z,10.47
2018-05-15T06:42:35.118Z,10.90
2018-05-15T06:45:02.711Z,11.00
2018-05-15T06:47:29.835Z,10.90
2018-05-15T06:49:56.643Z,10.97
2018-05-15T06:52:22.841Z,10.90
2018-05-15T06:54:49.555Z,10.07
2018-05-15T06:57:16.151Z,10.20
2018-05-15T06:59:43.621Z,10.40
2018-05-15T07:02:09.858Z,10.93
2018-05-15T07:04:37.004Z,9.43
2018-05-15T07:07:03.959Z,9.30
2018-05-15T07:09:31.134Z,9.80
2018-05-15T07:11:57.324Z,10.37
2018-05-15T07:14:23.551Z,10.50
2018-05-15T07:16:49.810Z,9.20
2018-05-15T07:19:16.084Z,10.40
2018-05-15T07:21:42.797Z,10.87
2018-05-15T07:24:09.010Z,9.60
2018-05-15T07:26:35.269Z,9.37
2018-05-15T07:29:02.135Z,9.70
2018-05-15T07:31:29.159Z,10.40
2018-05-15T07:33:55.359Z,10.70
2018-05-15T07:36:21.633Z,9.50
2018-05-15T07:38:47.779Z,9.43
2018-05-15T07:41:15.278Z,10.50
2018-05-15T07:43:42.289Z,11.13
2018-05-15T07:46:09.172Z,9.90
2018-05-15T07:48:36.501Z,10.03
2018-05-15T07:51:02.668Z,10.60
2018-05-15T07:53:30.026Z,10.50
2018-05-15T07:55:56.246Z,10.60
2018-05-15T07:58:22.985Z,9.90
2018-05-15T08:00:50.299Z,10.87
2018-05-15T08:03:17.643Z,10.80
2018-05-15T08:05:45.087Z,12.03
2018-05-15T08:08:11.308Z,10.83
2018-05-15T08:10:38.226Z,11.40
2018-05-15T08:13:04.432Z,10.20
2018-05-15T08:15:30.635Z,11.63
2018-05-15T08:17:56.844Z,11.00
2018-05-15T08:20:23.094Z,11.20
2018-05-15T08:22:49.275Z,10.40
2018-05-15T08:25:15.472Z,11.57
2018-05-15T08:27:42.420Z,10.30
2018-05-15T08:30:09.186Z,10.23
2018-05-15T08:32:35.875Z,10.50
2018-05-15T08:35:02.518Z,11.37
2018-05-15T08:37:29.840Z,11.00
2018-05-15T08:39:56.420Z,12.03
2018-05-15T08:42:23.443Z,10.03
2018-05-15T08:44:49.758Z,10.67
2018-05-15T08:47:16.610Z,9.77
2018-05-15T08:49:44.484Z,10.20
2018-05-15T08:52:10.993Z,10.00
2018-05-15T08:54:38.662Z,10.13
2018-05-15T08:57:04.853Z,10.10
2018-05-15T08:59:31.708Z,9.93
2018-05-15T09:01:58.681Z,9.50
2018-05-15T09:04:25.961Z,7.93
2018-05-15T09:06:52.937Z,9.10
2018-05-15T09:09:19.423Z,9.53
2018-05-15T09:11:46.441Z,9.67
2018-05-15T09:14:13.768Z,8.50
2018-05-15T09:16:40.759Z,8.97
2018-05-15T09:19:07.514Z,8.30
2018-05-15T09:21:33.841Z,9.10
2018-05-15T09:24:00.574Z,8.13
2018-05-15T09:26:27.314Z,7.60
2018-05-15T09:28:54.054Z,8.73
2018-05-15T09:31:20.774Z,9.47
2018-05-15T09:33:48.298Z,8.00
2018-05-15T09:36:15.435Z,8.80
2018-05-15T09:38:42.433Z,8.30
2018-05-15T09:41:09.947Z,9.77
2018-05-15T09:43:53.387Z,8.20
2018-05-15T09:46:20.549Z,9.37
2018-05-15T09:48:47.523Z,8.53
2018-05-15T09:51:14.652Z,9.20
2018-05-15T09:53:41.624Z,7.90
2018-05-15T09:56:07.892Z,8.77
2018-05-15T09:58:34.311Z,8.70
2018-05-15T10:01:01.083Z,8.53
2018-05-15T10:03:27.765Z,10.03
2018-05-15T10:05:54.643Z,9.03
2018-05-15T10:08:20.874Z,10.40
2018-05-15T10:10:48.724Z,10.87
2018-05-15T10:13:15.206Z,9.97
2018-05-15T10:15:42.658Z,10.10
2018-05-15T10:18:10.231Z,10.23
2018-05-15T10:20:38.150Z,9.77
2018-05-15T10:23:04.374Z,9.87
2018-05-15T10:25:31.737Z,9.30
2018-05-15T10:27:58.688Z,9.90
2018-05-15T10:30:25.752Z,10.60
2018-05-15T10:32:53.034Z,10.90
2018-05-15T10:35:19.827Z,10.00
2018-05-15T10:37:46.030Z,10.63
2018-05-15T10:40:12.729Z,10.90
2018-05-15T10:42:41.027Z,10.40
2018-05-15T10:45:08.076Z,10.00
2018-05-15T10:47:35.100Z,10.80
2018-05-15T10:50:02.063Z,10.20
2018-05-15T10:52:28.294Z,10.83
2018-05-15T10:54:54.740Z,10.50
2018-05-15T10:57:21.837Z,11.80
2018-05-15T10:59:48.034Z,11.30
2018-05-15T11:02:14.869Z,11.03
2018-05-15T11:04:49.012Z,10.77
2018-05-15T11:07:15.618Z,11.53
2018-05-15T11:09:42.906Z,11.00
2018-05-15T11:12:09.153Z,11.90
2018-05-15T11:14:36.095Z,12.27
2018-05-15T11:17:03.078Z,12.30
2018-05-15T11:19:42.141Z,12.33
2018-05-15T11:22:21.786Z,12.40
2018-05-15T11:24:52.328Z,13.00
2018-05-15T11:27:18.592Z,11.77
2018-05-15T11:29:44.842Z,11.70
2018-05-15T11:32:11.608Z,10.53
2018-05-15T11:34:38.400Z,11.50
2018-05-15T11:37:05.212Z,10.53
2018-05-15T11:39:32.194Z,11.47
2018-05-15T11:41:58.391Z,12.03
2018-05-15T11:44:25.920Z,10.47
2018-05-15T11:46:53.158Z,11.60
2018-05-15T11:49:20.417Z,10.73
2018-05-15T11:51:47.085Z,11.17
2018-05-15T11:54:12.454Z,10.87
2018-05-15T11:56:40.129Z,10.20
2018-05-15T11:59:06.349Z,11.20
2018-05-15T12:01:33.114Z,11.20
2018-05-15T12:03:59.986Z,11.93
2018-05-15T12:06:27.298Z,10.20
2018-05-15T12:08:54.989Z,10.00
2018-05-15T12:11:22.034Z,10.13
2018-05-15T12:13:49.598Z,10.93
2018-05-15T12:16:17.594Z,11.30
2018-05-15T12:18:44.388Z,10.53
2018-05-15T12:21:10.895Z,10.43
2018-05-15T12:23:36.918Z,10.30
2018-05-15T12:26:03.956Z,10.40
2018-05-15T12:28:31.483Z,10.27
2018-05-15T12:30:58.451Z,10.90
2018-05-15T12:33:24.903Z,9.53
2018-05-15T12:35:52.127Z,10.37
2018-05-15T12:38:18.449Z,10.20
2018-05-15T12:40:44.685Z,9.07
2018-05-15T12:43:11.595Z,11.30
2018-05-15T12:45:39.454Z,10.03
2018-05-15T12:48:06.699Z,11.00
2018-05-15T12:50:34.292Z,9.67
2018-05-15T12:53:01.592Z,9.20
2018-05-15T12:55:29.175Z,9.43
2018-05-15T12:57:56.361Z,9.53
2018-05-15T13:00:24.346Z,9.83
2018-05-15T13:02:50.562Z,9.70
2018-05-15T13:05:16.773Z,10.20
2018-05-15T13:07:43.705Z,12.43
2018-05-15T13:10:11.194Z,15.80
2018-05-15T13:12:38.186Z,18.77
2018-05-15T13:15:05.025Z,17.33
2018-05-15T13:17:31.908Z,15.40
2018-05-15T13:19:58.683Z,10.40
2018-05-15T13:22:24.925Z,12.87
2018-05-15T13:24:51.186Z,10.80
2018-05-15T13:27:17.397Z,10.80
2018-05-15T13:29:43.611Z,10.10
2018-05-15T13:32:09.845Z,9.17
2018-05-15T13:34:36.955Z,9.60
2018-05-15T13:37:04.342Z,11.37
2018-05-15T13:39:31.336Z,10.80
2018-05-15T13:41:58.908Z,10.90
2018-05-15T13:44:25.646Z,10.90
2018-05-15T13:46:52.876Z,9.60
2018-05-15T13:49:19.960Z,9.80
2018-05-15T13:51:46.448Z,9.60
2018-05-15T13:54:13.542Z,11.80
2018-05-15T13:56:39.826Z,12.10
2018-05-15T13:59:06.195Z,12.80
2018-05-15T14:01:33.820Z,11.47
2018-05-15T14:04:00.857Z,9.40
2018-05-15T14:06:28.640Z,8.97
2018-05-15T14:08:55.561Z,11.13
2018-05-15T14:11:22.083Z,11.73
2018-05-15T14:13:49.065Z,10.40
2018-05-15T14:16:16.053Z,7.80
2018-05-15T14:18:42.725Z,8.70
2018-05-15T14:21:10.211Z,9.43
2018-05-15T14:23:36.934Z,10.50
2018-05-15T14:26:04.444Z,9.77
2018-05-15T14:28:31.529Z,9.53
2018-05-15T14:30:57.797Z,11.87
2018-05-15T14:33:24.584Z,9.53
2018-05-15T14:35:51.146Z,9.30
2018-05-15T14:38:19.307Z,8.47
2018-05-15T14:40:46.050Z,9.67
2018-05-15T14:43:20.888Z,9.00
2018-05-15T14:45:47.263Z,9.97
2018-05-15T14:48:15.574Z,9.17
2018-05-15T14:51:07.191Z,9.70
2018-05-15T14:53:33.479Z,9.50
2018-05-15T14:56:00.507Z,10.10
2018-05-15T14:58:27.781Z,11.17
2018-05-15T15:00:54.187Z,9.30
2018-05-15T15:03:21.234Z,10.10
2018-05-15T15:05:49.249Z,9.80
2018-05-15T15:08:15.454Z,7.93
2018-05-15T15:10:42.612Z,8.43
2018-05-15T15:13:09.884Z,9.13
2018-05-15T15:15:36.114Z,8.87
2018-05-15T15:18:02.910Z,8.03
2018-05-15T15:20:29.893Z,8.20
2018-05-15T15:22:56.464Z,8.00
2018-05-15T15:25:23.989Z,8.97
2018-05-15T15:27:50.179Z,8.10
2018-05-15T15:30:16.555Z,9.50
2018-05-15T15:32:43.123Z,8.87
2018-05-15T15:35:10.633Z,9.13
2018-05-15T15:37:38.649Z,9.30
2018-05-15T15:40:05.888Z,7.73
2018-05-15T15:42:34.087Z,7.23
2018-05-15T15:45:00.983Z,8.17
2018-05-15T15:47:28.271Z,6.73
2018-05-15T15:49:55.811Z,7.80
2018-05-15T15:52:22.052Z,5.97
2018-05-15T15:54:48.252Z,6.33
2018-05-15T15:57:15.528Z,8.60
2018-05-15T15:59:42.314Z,6.40
2018-05-15T16:02:08.967Z,8.63
2018-05-15T16:04:36.816Z,8.97
2018-05-15T16:07:04.053Z,9.00
2018-05-15T16:09:30.989Z,9.13
2018-05-15T16:11:57.957Z,9.53
2018-05-15T16:14:24.154Z,9.30
2018-05-15T16:16:50.953Z,8.23
2018-05-15T16:19:17.162Z,9.33
2018-05-15T16:21:43.684Z,8.80
2018-05-15T16:24:10.505Z,9.70
2018-05-15T16:26:37.471Z,9.60
2018-05-15T16:29:03.671Z,8.63
2018-05-15T16:31:30.251Z,9.77
2018-05-15T16:33:57.292Z,10.20
2018-05-15T16:36:23.612Z,10.00
2018-05-15T16:38:49.878Z,10.33
2018-05-15T16:41:16.072Z,10.23
2018-05-15T16:43:42.601Z,11.20
2018-05-15T16:46:09.030Z,10.80
2018-05-15T16:48:35.961Z,11.37
2018-05-15T16:51:03.551Z,11.27
2018-05-15T16:53:30.717Z,11.00
2018-05-15T16:55:56.918Z,10.50
2018-05-15T16:58:23.582Z,12.00
2018-05-15T17:00:51.243Z,10.83
2018-05-15T17:03:18.783Z,11.33
2018-05-15T17:05:45.057Z,12.03
2018-05-15T17:08:11.850Z,11.33
2018-05-15T17:10:38.540Z,10.83
2018-05-15T17:13:05.460Z,11.40
2018-05-15T17:15:32.970Z,11.70
2018-05-15T17:18:00.294Z,10.47
2018-05-15T17:20:27.804Z,10.70
2018-05-15T17:22:54.600Z,10.97
2018-05-15T17:25:21.090Z,12.47
2018-05-15T17:27:48.695Z,10.70
2018-05-15T17:30:15.138Z,11.20
2018-05-15T17:32:41.991Z,10.30
2018-05-15T17:35:09.103Z,10.13
2018-05-15T17:37:35.513Z,11.60
2018-05-15T17:40:02.537Z,13.97
2018-05-15T17:42:29.443Z,11.30
2018-05-15T17:44:56.747Z,10.27
2018-05-15T17:47:23.810Z,10.27
2018-05-15T17:49:51.043Z,12.77
2018-05-15T17:52:17.536Z,12.93
2018-05-15T18:07:44.507Z,11.10
2018-05-15T18:10:11.276Z,13.60
2018-05-15T18:12:38.233Z,12.90
2018-05-15T18:15:05.760Z,12.77
2018-05-15T18:17:32.502Z,12.27
2018-05-15T18:19:59.290Z,13.00
2018-05-15T18:22:26.089Z,14.87
2018-05-15T18:24:53.303Z,12.40
2018-05-15T18:27:20.053Z,12.77
2018-05-15T18:29:46.509Z,12.60
2018-05-15T18:32:14.081Z,13.93
2018-05-15T18:34:40.825Z,12.10
2018-05-15T18:37:07.034Z,12.70
2018-05-15T18:39:33.935Z,14.40
2018-05-15T18:42:01.306Z,13.30
2018-05-15T18:44:28.843Z,14.27
2018-05-15T18:46:56.064Z,13.50
2018-05-15T18:49:23.707Z,14.30
2018-05-15T18:51:50.937Z,13.20
2018-05-15T18:54:17.191Z,11.80
2018-05-15T18:56:44.081Z,13.10
2018-05-15T18:59:11.057Z,12.97
2018-05-15T19:01:37.327Z,14.30
2018-05-15T19:04:04.640Z,13.93
2018-05-15T19:06:31.027Z,14.30
2018-05-15T19:09:12.997Z,11.40
2018-05-15T19:11:39.637Z,12.27
2018-05-15T19:14:07.161Z,12.07
2018-05-15T19:16:34.607Z,11.73
2018-05-15T19:19:01.670Z,13.00
2018-05-15T19:21:28.911Z,12.17
2018-05-15T19:23:55.529Z,12.50
2018-05-15T19:26:22.649Z,15.10
2018-05-15T19:28:49.703Z,15.57
2018-05-15T19:31:16.121Z,13.87
2018-05-15T19:33:43.143Z,14.50
2018-05-15T19:36:09.635Z,13.07
2018-05-15T19:38:36.806Z,14.20
2018-05-15T19:41:06.139Z,13.67
2018-05-15T19:43:32.439Z,14.10
2018-05-15T19:45:58.776Z,14.27
2018-05-15T19:48:25.039Z,12.83
2018-05-15T19:50:51.477Z,11.20
2018-05-15T19:53:17.987Z,11.20
2018-05-15T19:55:45.130Z,12.23
2018-05-15T19:58:12.276Z,12.37
2018-05-15T20:00:38.747Z,11.30
2018-05-15T20:03:07.174Z,9.73
2018-05-15T20:05:33.486Z,11.10
2018-05-15T20:08:01.114Z,10.53
2018-05-15T20:10:27.496Z,11.73
2018-05-15T20:12:53.920Z,11.13
2018-05-15T20:15:20.923Z,11.03
2018-05-15T20:17:47.201Z,11.83
2018-05-15T20:20:14.117Z,12.53
2018-05-15T20:22:40.484Z,11.10
2018-05-15T20:25:07.445Z,11.00
2018-05-15T20:27:33.817Z,11.83
2018-05-15T20:30:00.599Z,11.73
2018-05-15T20:32:27.149Z,12.10
2018-05-15T20:34:54.211Z,11.00
2018-05-15T20:37:20.476Z,11.73
2018-05-15T20:39:46.785Z,10.77
2018-05-15T20:42:13.503Z,10.57
2018-05-15T20:44:41.148Z,10.13
2018-05-15T20:47:07.667Z,10.17
2018-05-15T20:49:34.434Z,11.10
2018-05-15T20:52:00.638Z,10.63
2018-05-15T20:54:26.848Z,11.30
2018-05-15T20:56:53.792Z,10.33
2018-05-15T20:59:20.910Z,10.60
2018-05-15T21:01:48.568Z,10.57
2018-05-15T21:04:15.301Z,9.20
2018-05-15T21:06:42.156Z,10.87
2018-05-15T21:09:08.628Z,10.67
2018-05-15T21:11:35.707Z,10.90
2018-05-15T21:14:03.131Z,9.87
2018-05-15T21:16:30.134Z,11.27
2018-05-15T21:18:57.064Z,11.33
2018-05-15T21:21:23.464Z,11.83
2018-05-15T21:23:49.654Z,12.53
2018-05-15T21:26:16.059Z,13.40
2018-05-15T21:28:43.074Z,12.20
2018-05-15T21:31:09.926Z,11.77
2018-05-15T21:33:36.669Z,11.20
2018-05-15T21:36:03.438Z,11.17
2018-05-15T21:38:31.504Z,11.37
2018-05-15T21:40:57.734Z,11.43
2018-05-15T21:43:24.490Z,11.60
2018-05-15T21:45:50.709Z,11.83
2018-05-15T21:48:17.574Z,11.30
2018-05-15T21:50:44.341Z,11.80
2018-05-15T21:53:10.847Z,11.03
2018-05-15T21:55:37.789Z,12.87
2018-05-15T21:58:03.984Z,12.03
2018-05-15T22:00:30.528Z,12.97
2018-05-15T22:02:57.355Z,12.30
2018-05-15T22:05:23.525Z,12.23
2018-05-15T22:07:51.003Z,11.63
2018-05-15T22:10:18.125Z,11.70
2018-05-15T22:12:58.350Z,13.30
2018-05-15T22:15:37.396Z,11.20
2018-05-15T22:18:16.474Z,11.50
2018-05-15T22:20:54.819Z,11.30
2018-05-15T22:23:20.844Z,11.40
2018-05-15T22:25:47.044Z,10.50
2018-05-15T22:28:13.313Z,12.05
2018-05-15T22:30:39.877Z,11.50
2018-05-15T22:33:07.435Z,11.88
2018-05-15T22:35:34.479Z,10.43
2018-05-15T22:38:01.246Z,12.23
2018-05-15T22:40:27.986Z,12.10
2018-05-15T22:42:54.213Z,10.90
2018-05-15T22:45:20.653Z,10.43
2018-05-15T22:47:48.294Z,11.45
2018-05-15T22:50:16.207Z,10.47
2018-05-15T22:52:42.987Z,10.67
2018-05-15T22:55:10.543Z,9.80
2018-05-15T22:57:38.084Z,10.50
2018-05-15T23:00:04.301Z,11.37
2018-05-15T23:02:31.042Z,10.20
2018-05-15T23:04:57.239Z,10.10
2018-05-15T23:07:23.438Z,11.83
2018-05-15T23:09:50.378Z,11.10
2018-05-15T23:12:17.995Z,11.30
2018-05-15T23:14:44.238Z,12.17
2018-05-15T23:17:10.996Z,12.13
2018-05-15T23:19:37.218Z,12.30
2018-05-15T23:22:04.007Z,12.63
2018-05-15T23:24:30.773Z,13.37
2018-05-15T23:26:57.704Z,12.67
2018-05-15T23:29:25.419Z,12.07
2018-05-15T23:31:52.650Z,11.70
2018-05-15T23:34:20.646Z,11.93
2018-05-15T23:36:48.286Z,12.97
2018-05-15T23:39:14.940Z,13.10
2018-05-15T23:41:41.911Z,12.27
2018-05-15T23:44:08.111Z,13.65
2018-05-15T23:46:35.660Z,13.32
2018-05-15T23:49:02.404Z,13.00
2018-05-15T23:51:30.101Z,13.90
2018-05-15T23:53:56.425Z,14.33
2018-05-15T23:56:23.572Z,13.70
2018-05-15T23:58:50.342Z,14.23
